Terminal Aerodrome Forecast
Issued by NWS

Home | Current Version | Previous Version | Text Only | Print | Product List | Glossary On
Versions: 1 2 3 4 5 6 7 8 9 10 11 12 13 14 15 16 17 18
000
FTUS43 KGRR 070529
TAFLAN
TAF
KLAN 070529Z 0706/0806 20008KT 6SM HZ SCT040 BKN250
     FM070800 21011KT 6SM -SHRA BR VCTS BKN025CB OVC050
     FM071200 23010KT 4SM -SHRA BR OVC009
     FM071900 30010KT P6SM BKN015
     FM072300 34007KT P6SM BKN050=

USA.gov is the U.S. government's official web portal to all federal, state and local government web resources and services.